METAR Data
IDs: Format: Raw Decoded Include TAF

Data at: 0238 UTC 12 Dec 2018

METAR for:KIAH (Houston/Bush Intl, TX, US)
Text:KIAH 120153Z 15005KT 10SM BKN250 11/08 A3025 RMK AO2 SLP244 T01110083
Temperature: 11.1°C ( 52°F)
Dewpoint: 8.3°C ( 47°F) [RH = 83%]
Pressure (altimeter):30.25 inches Hg (1024.5 mb) [Sea level pressure: 1024.4 mb]
Winds:from the SSE (150 degrees) at 6 MPH (5 knots; 2.6 m/s)
Visibility:10 or more sm (16+ km)
Ceiling:25000 feet AGL
Clouds: broken clouds at 25000 feet AGL

METAR for:KHOU (Houston/Hobby Arpt, TX, US)
Text:KHOU 120153Z 12006KT 10SM FEW035 BKN250 12/07 A3026 RMK AO2 SLP251 T01220072
Temperature: 12.2°C ( 54°F)
Dewpoint: 7.2°C ( 45°F) [RH = 71%]
Pressure (altimeter):30.26 inches Hg (1024.8 mb) [Sea level pressure: 1025.1 mb]
Winds:from the ESE (120 degrees) at 7 MPH (6 knots; 3.1 m/s)
Visibility:10 or more sm (16+ km)
Ceiling:25000 feet AGL
Clouds: few clouds at 3500 feet AGL, broken clouds at 25000 feet AGL

METAR for:KGLS (Galveston/Scholes In, TX, US)
Text:KGLS 120152Z AUTO 14009KT 10SM CLR 14/10 A3028 RMK AO2 SLP252 T01390100
Temperature: 13.9°C ( 57°F)
Dewpoint: 10.0°C ( 50°F) [RH = 77%]
Pressure (altimeter):30.28 inches Hg (1025.5 mb) [Sea level pressure: 1025.2 mb]
Winds:from the SE (140 degrees) at 10 MPH (9 knots; 4.6 m/s)
Visibility:10 or more sm (16+ km)
Ceiling:at least 12,000 feet AGL
Clouds:sky clear below 12,000 feet AGL
QC Flag:automated observation with no human augmentation

METAR for:KLVJ (Houston/Pearland Rgn, TX, US)
Text:KLVJ 120153Z AUTO 12005KT 10SM CLR 12/08 A3028 RMK AO2 SLP253 T01170083
Temperature: 11.7°C ( 53°F)
Dewpoint: 8.3°C ( 47°F) [RH = 80%]
Pressure (altimeter):30.28 inches Hg (1025.5 mb) [Sea level pressure: 1025.3 mb]
Winds:from the ESE (120 degrees) at 6 MPH (5 knots; 2.6 m/s)
Visibility:10 or more sm (16+ km)
Ceiling:at least 12,000 feet AGL
Clouds:sky clear below 12,000 feet AGL
QC Flag:automated observation with no human augmentation

METAR for:KSGR (Houston/Sugar Land R, TX, US)
Text:KSGR 120153Z 12007KT 10SM CLR 13/08 A3024 RMK AO2 SLP242 T01330083
Temperature: 13.3°C ( 56°F)
Dewpoint: 8.3°C ( 47°F) [RH = 72%]
Pressure (altimeter):30.24 inches Hg (1024.1 mb) [Sea level pressure: 1024.2 mb]
Winds:from the ESE (120 degrees) at 8 MPH (7 knots; 3.6 m/s)
Visibility:10 or more sm (16+ km)
Ceiling:at least 12,000 feet AGL
Clouds:sky clear below 12,000 feet AGL

METAR for:KDWH (Houston/Hooks Mem, TX, US)
Text:KDWH 120153Z 14004KT 10SM CLR 11/08 A3026 RMK AO2 SLP245 T01060078
Temperature: 10.6°C ( 51°F)
Dewpoint: 7.8°C ( 46°F) [RH = 83%]
Pressure (altimeter):30.26 inches Hg (1024.8 mb) [Sea level pressure: 1024.5 mb]
Winds:from the SE (140 degrees) at 5 MPH (4 knots; 2.1 m/s)
Visibility:10 or more sm (16+ km)
Ceiling:at least 12,000 feet AGL
Clouds:sky clear below 12,000 feet AGL

METAR for:KCLL (College Station/East, TX, US)
Text:KCLL 120153Z 16005KT 10SM CLR 10/07 A3022 RMK AO2 SLP232 T01000072
Temperature: 10.0°C ( 50°F)
Dewpoint: 7.2°C ( 45°F) [RH = 83%]
Pressure (altimeter):30.22 inches Hg (1023.5 mb) [Sea level pressure: 1023.2 mb]
Winds:from the SSE (160 degrees) at 6 MPH (5 knots; 2.6 m/s)
Visibility:10 or more sm (16+ km)
Ceiling:at least 12,000 feet AGL
Clouds:sky clear below 12,000 feet AGL

METAR for:KUTS (Huntsville Muni, TX, US)
Text:KUTS 120153Z AUTO 14004KT 10SM CLR 10/06 A3023 RMK AO2 SLP236 T01000056
Temperature: 10.0°C ( 50°F)
Dewpoint: 5.6°C ( 42°F) [RH = 74%]
Pressure (altimeter):30.23 inches Hg (1023.8 mb) [Sea level pressure: 1023.6 mb]
Winds:from the SE (140 degrees) at 5 MPH (4 knots; 2.1 m/s)
Visibility:10 or more sm (16+ km)
Ceiling:at least 12,000 feet AGL
Clouds:sky clear below 12,000 feet AGL
QC Flag:automated observation with no human augmentation

METAR for:KCXO (Conroe/Executive Arp, TX, US)
Text:KCXO 120153Z 14003KT 10SM CLR 09/07 A3026 RMK AO2 SLP247 T00890072
Temperature: 8.9°C ( 48°F)
Dewpoint: 7.2°C ( 45°F) [RH = 89%]
Pressure (altimeter):30.26 inches Hg (1024.8 mb) [Sea level pressure: 1024.7 mb]
Winds:from the SE (140 degrees) at 3 MPH (3 knots; 1.5 m/s)
Visibility:10 or more sm (16+ km)
Ceiling:at least 12,000 feet AGL
Clouds:sky clear below 12,000 feet AGL

METAR for:KLBX (Angleton/Texas Gulf, TX, US)
Text:KLBX 120153Z AUTO 12005KT 10SM CLR 12/09 A3025 RMK AO2 SLP243 T01220089
Temperature: 12.2°C ( 54°F)
Dewpoint: 8.9°C ( 48°F) [RH = 80%]
Pressure (altimeter):30.25 inches Hg (1024.5 mb) [Sea level pressure: 1024.3 mb]
Winds:from the ESE (120 degrees) at 6 MPH (5 knots; 2.6 m/s)
Visibility:10 or more sm (16+ km)
Ceiling:at least 12,000 feet AGL
Clouds:sky clear below 12,000 feet AGL
QC Flag:automated observation with no human augmentation

METAR for:KPSX (Palacios Muni, TX, US)
Text:KPSX 120153Z AUTO 13008KT 10SM CLR 14/13 A3023 RMK AO2 SLP235 T01440128
Temperature: 14.4°C ( 58°F)
Dewpoint: 12.8°C ( 55°F) [RH = 90%]
Pressure (altimeter):30.23 inches Hg (1023.8 mb) [Sea level pressure: 1023.5 mb]
Winds:from the SE (130 degrees) at 9 MPH (8 knots; 4.1 m/s)
Visibility:10 or more sm (16+ km)
Ceiling:at least 12,000 feet AGL
Clouds:sky clear below 12,000 feet AGL
QC Flag:automated observation with no human augmentation